createdAt,value
2024-05-09T00:01:18.291Z,100488.75
2024-05-09T00:03:49.883Z,100490.55
2024-05-09T00:06:22.375Z,100485.65
2024-05-09T00:08:53.934Z,100490.16
2024-05-09T00:11:24.349Z,100491.43
2024-05-09T00:13:56.084Z,100496.83
2024-05-09T00:16:26.335Z,100494.10
2024-05-09T00:18:57.983Z,100492.69
2024-05-09T00:21:28.104Z,100489.84
2024-05-09T00:23:59.554Z,100496.34
2024-05-09T00:26:30.252Z,100500.20
2024-05-09T00:29:01.946Z,100505.19
2024-05-09T00:31:31.972Z,100506.71
2024-05-09T00:34:03.883Z,100504.92
2024-05-09T00:36:34.248Z,100496.61
2024-05-09T00:39:05.605Z,100496.43
2024-05-09T00:41:35.922Z,100495.71
2024-05-09T00:44:08.787Z,100496.85
2024-05-09T00:46:38.924Z,100492.34
2024-05-09T00:49:10.586Z,100487.85
2024-05-09T00:51:40.701Z,100488.89
2024-05-09T00:54:12.459Z,100488.07
2024-05-09T00:56:42.690Z,100493.19
2024-05-09T00:59:14.294Z,100488.85
2024-05-09T01:01:44.695Z,100494.02
2024-05-09T01:04:16.839Z,100499.34
2024-05-09T01:06:47.975Z,100498.17
2024-05-09T01:09:19.209Z,100493.70
2024-05-09T01:11:49.659Z,100494.09
2024-05-09T01:14:21.337Z,100487.84
2024-05-09T01:16:51.692Z,100489.79
2024-05-09T01:19:28.881Z,100493.06
2024-05-09T01:22:00.675Z,100493.84
2024-05-09T01:24:30.818Z,100499.05
2024-05-09T01:27:02.641Z,100500.79
2024-05-09T01:29:32.814Z,100500.48
2024-05-09T01:32:05.142Z,100499.75
2024-05-09T01:34:35.459Z,100503.63
2024-05-09T01:37:06.819Z,100500.98
2024-05-09T01:39:37.027Z,100502.66
2024-05-09T01:42:08.888Z,100495.98
2024-05-09T01:44:39.207Z,100500.78
2024-05-09T01:47:10.908Z,100501.04
2024-05-09T01:49:41.620Z,100501.12
2024-05-09T01:52:13.157Z,100501.31
2024-05-09T01:54:43.487Z,100499.34
2024-05-09T01:57:14.837Z,100496.92
2024-05-09T01:59:45.368Z,100497.73
2024-05-09T02:02:17.259Z,100500.70
2024-05-09T02:04:48.251Z,100499.89
2024-05-09T02:07:19.804Z,100500.70
2024-05-09T02:09:53.718Z,100494.73
2024-05-09T02:12:25.400Z,100496.06
2024-05-09T02:14:55.795Z,100494.23
2024-05-09T02:17:27.854Z,100496.02
2024-05-09T02:19:58.166Z,100493.04
2024-05-09T02:22:29.848Z,100489.70
2024-05-09T02:25:00.163Z,100491.12
2024-05-09T02:27:31.411Z,100491.40
2024-05-09T02:30:01.753Z,100492.11
2024-05-09T02:32:33.716Z,100491.73
2024-05-09T02:35:04.545Z,100489.48
2024-05-09T02:37:35.882Z,100493.08
2024-05-09T02:40:09.153Z,100494.35
2024-05-09T02:42:42.875Z,100494.16
2024-05-09T02:45:13.215Z,100492.77
2024-05-09T02:47:44.721Z,100492.80
2024-05-09T02:50:19.433Z,100493.83
2024-05-09T02:52:58.547Z,100498.69
2024-05-09T02:55:28.833Z,100500.69
2024-05-09T02:58:00.809Z,100502.55
2024-05-09T03:00:38.359Z,100504.40
2024-05-09T03:03:14.983Z,100503.65
2024-05-09T03:05:49.257Z,100505.55
2024-05-09T03:08:19.862Z,100510.20
2024-05-09T03:10:51.408Z,100507.56
2024-05-09T03:13:22.194Z,100510.79
2024-05-09T03:15:53.501Z,100506.88
2024-05-09T03:18:23.826Z,100508.29
2024-05-09T03:20:55.346Z,100507.81
2024-05-09T03:23:25.820Z,100508.44
2024-05-09T03:25:57.626Z,100507.02
2024-05-09T03:28:27.742Z,100513.27
2024-05-09T03:30:59.282Z,100511.30
2024-05-09T03:33:29.652Z,100512.55
2024-05-09T03:36:01.563Z,100513.84
2024-05-09T03:38:37.226Z,100510.11
2024-05-09T03:41:09.382Z,100508.73
2024-05-09T03:43:39.806Z,100512.06
2024-05-09T03:46:11.454Z,100510.41
2024-05-09T03:48:41.738Z,100511.80
2024-05-09T03:51:13.652Z,100512.06
2024-05-09T03:53:44.359Z,100514.12
2024-05-09T03:56:16.087Z,100514.77
2024-05-09T03:58:46.532Z,100516.24
2024-05-09T04:01:18.160Z,100521.15
2024-05-09T04:03:48.675Z,100516.27
2024-05-09T04:06:24.493Z,100519.64
2024-05-09T04:08:55.841Z,100519.95
2024-05-09T04:11:26.156Z,100523.04
2024-05-09T04:13:57.749Z,100522.91
2024-05-09T04:16:28.565Z,100522.45
2024-05-09T04:19:00.043Z,100527.83
2024-05-09T04:21:30.238Z,100532.13
2024-05-09T04:24:01.683Z,100530.02
2024-05-09T04:26:32.313Z,100534.93
2024-05-09T04:29:03.784Z,100538.25
2024-05-09T04:31:36.917Z,100540.70
2024-05-09T04:34:08.664Z,100547.86
2024-05-09T04:36:41.629Z,100555.70
2024-05-09T04:39:13.762Z,100554.16
2024-05-09T04:41:43.991Z,100556.06
2024-05-09T04:44:15.462Z,100551.85
2024-05-09T04:46:47.446Z,100549.44
2024-05-09T04:49:18.924Z,100548.98
2024-05-09T04:51:49.687Z,100553.80
2024-05-09T04:54:30.251Z,100556.88
2024-05-09T04:57:07.951Z,100557.87
2024-05-09T04:59:38.396Z,100560.05
2024-05-09T05:02:10.002Z,100559.15
2024-05-09T05:04:40.705Z,100563.80
2024-05-09T05:07:12.315Z,100565.65
2024-05-09T05:09:42.551Z,100567.61
2024-05-09T05:12:32.858Z,100566.94
2024-05-09T05:15:04.980Z,100565.28
2024-05-09T05:17:35.430Z,100567.67
2024-05-09T05:20:08.755Z,100568.17
2024-05-09T05:22:43.680Z,100570.52
2024-05-09T05:25:14.077Z,100570.72
2024-05-09T05:27:45.614Z,100567.88
2024-05-09T05:30:21.268Z,100571.39
2024-05-09T05:32:57.164Z,100568.51
2024-05-09T05:35:27.399Z,100568.42
2024-05-09T05:37:59.222Z,100573.73
2024-05-09T05:40:36.319Z,100571.79
2024-05-09T05:43:15.894Z,100567.71
2024-05-09T05:45:47.392Z,100567.27
2024-05-09T05:48:18.197Z,100566.86
2024-05-09T05:50:50.204Z,100567.86
2024-05-09T05:53:20.555Z,100564.39
2024-05-09T05:55:52.346Z,100565.66
2024-05-09T05:58:22.674Z,100564.66
2024-05-09T06:00:54.372Z,100567.93
2024-05-09T06:03:24.804Z,100561.44
2024-05-09T06:05:56.813Z,100558.21
2024-05-09T06:08:30.190Z,100557.54
2024-05-09T06:11:02.978Z,100556.56
2024-05-09T06:13:33.243Z,100553.34
2024-05-09T06:16:05.700Z,100555.55
2024-05-09T06:18:36.046Z,100551.63
2024-05-09T06:21:07.936Z,100559.56
2024-05-09T06:23:46.038Z,100558.84
2024-05-09T06:26:17.684Z,100559.98
2024-05-09T06:28:48.021Z,100560.43
2024-05-09T06:31:19.519Z,100557.42
2024-05-09T06:33:49.899Z,100562.54
2024-05-09T06:36:21.603Z,100561.69
2024-05-09T06:38:51.823Z,100558.52
2024-05-09T06:41:23.421Z,100559.08
2024-05-09T06:43:53.666Z,100559.39
2024-05-09T06:46:26.182Z,100560.55
2024-05-09T06:48:57.396Z,100558.98
2024-05-09T06:51:29.382Z,100561.96
2024-05-09T06:53:59.602Z,100560.48
2024-05-09T06:56:31.229Z,100564.98
2024-05-09T06:59:02.650Z,100560.60
2024-05-09T07:01:34.265Z,100560.30
2024-05-09T07:04:05.118Z,100561.63
2024-05-09T07:06:36.767Z,100559.61
2024-05-09T07:09:06.880Z,100561.55
2024-05-09T07:11:38.456Z,100559.80
2024-05-09T07:14:08.937Z,100556.84
2024-05-09T07:16:40.610Z,100555.55
2024-05-09T07:19:11.494Z,100558.23
2024-05-09T07:21:43.209Z,100559.81
2024-05-09T07:24:13.225Z,100562.56
2024-05-09T07:26:45.119Z,100562.98
2024-05-09T07:29:15.347Z,100560.48
2024-05-09T07:31:46.952Z,100559.35
2024-05-09T07:34:17.827Z,100561.57
2024-05-09T07:36:49.756Z,100557.14
2024-05-09T07:39:20.812Z,100553.36
2024-05-09T07:41:52.252Z,100556.20
2024-05-09T07:44:22.526Z,100558.11
2024-05-09T07:48:13.741Z,100553.05
2024-05-09T07:51:32.565Z,100546.53
2024-05-09T07:53:33.877Z,100550.51
2024-05-09T07:55:31.161Z,100547.71
2024-05-09T07:58:01.498Z,100548.30
2024-05-09T08:00:33.881Z,100545.92
2024-05-09T08:03:04.481Z,100542.20
2024-05-09T08:05:38.186Z,100539.34
2024-05-09T08:08:08.910Z,100540.04
2024-05-09T08:10:40.380Z,100539.83
2024-05-09T08:13:10.792Z,100536.06
2024-05-09T08:15:42.598Z,100543.90
2024-05-09T08:18:13.185Z,100541.39
2024-05-09T08:20:48.206Z,100540.95
2024-05-09T08:23:20.696Z,100539.88
2024-05-09T08:25:51.204Z,100539.70
2024-05-09T08:28:22.833Z,100544.77
2024-05-09T08:30:53.291Z,100541.86
2024-05-09T08:33:25.296Z,100543.37
2024-05-09T08:35:55.781Z,100535.30
2024-05-09T08:38:27.332Z,100532.73
2024-05-09T08:40:57.616Z,100532.88
2024-05-09T08:43:29.163Z,100537.86
2024-05-09T08:45:59.982Z,100533.30
2024-05-09T08:48:31.523Z,100532.77
2024-05-09T08:51:02.137Z,100538.41
2024-05-09T08:53:33.987Z,100534.13
2024-05-09T08:56:04.745Z,100533.98
2024-05-09T08:58:36.916Z,100536.84
2024-05-09T09:01:07.369Z,100544.88
2024-05-09T09:03:39.371Z,100536.91
2024-05-09T09:06:11.883Z,100536.34
2024-05-09T09:08:43.830Z,100537.67
2024-05-09T09:11:14.011Z,100535.59
2024-05-09T09:13:45.908Z,100532.36
2024-05-09T09:16:17.452Z,100536.80
2024-05-09T09:18:50.147Z,100540.64
2024-05-09T09:21:20.461Z,100540.09
2024-05-09T09:23:52.513Z,100536.74
2024-05-09T09:26:23.049Z,100536.57
2024-05-09T09:28:54.821Z,100538.93
2024-05-09T09:31:25.097Z,100539.46
2024-05-09T09:33:57.235Z,100543.73
2024-05-09T09:36:28.457Z,100541.97
2024-05-09T09:38:59.797Z,100535.91
2024-05-09T09:41:30.938Z,100534.02
2024-05-09T09:44:02.608Z,100529.37
2024-05-09T09:46:32.749Z,100532.70
2024-05-09T09:49:04.627Z,100526.73
2024-05-09T09:51:34.919Z,100523.93
2024-05-09T09:54:06.738Z,100522.70
2024-05-09T09:56:37.688Z,100513.30
2024-05-09T09:59:09.551Z,100511.85
2024-05-09T10:01:41.181Z,100511.33
2024-05-09T10:04:15.835Z,100510.59
2024-05-09T10:06:53.270Z,100509.16
2024-05-09T10:09:24.866Z,100506.98
2024-05-09T10:11:59.967Z,100506.81
2024-05-09T10:14:39.796Z,100506.94
2024-05-09T10:17:11.363Z,100506.84
2024-05-09T10:22:50.182Z,100501.79
2024-05-09T10:25:23.550Z,100499.29
2024-05-09T10:27:56.687Z,100499.83
2024-05-09T10:30:34.160Z,100497.33
2024-05-09T10:33:11.251Z,100500.27
2024-05-09T10:35:51.524Z,100496.34
2024-05-09T10:38:22.946Z,100492.89
2024-05-09T10:40:57.053Z,100487.77
2024-05-09T10:43:28.878Z,100486.03
2024-05-09T10:45:59.020Z,100478.13
2024-05-09T10:48:30.908Z,100483.63
2024-05-09T10:51:01.185Z,100481.46
2024-05-09T10:53:32.631Z,100481.05
2024-05-09T10:56:02.887Z,100477.38
2024-05-09T10:58:34.314Z,100475.35
2024-05-09T11:01:07.039Z,100470.96
2024-05-09T11:03:39.908Z,100473.23
2024-05-09T11:06:11.408Z,100474.02
2024-05-09T11:08:43.391Z,100466.54
2024-05-09T11:11:13.713Z,100464.27
2024-05-09T11:13:45.161Z,100467.35
2024-05-09T11:16:20.155Z,100464.39
2024-05-09T11:18:58.831Z,100462.98
2024-05-09T11:21:31.008Z,100458.86
2024-05-09T11:24:01.204Z,100457.69
2024-05-09T11:26:32.961Z,100460.02
2024-05-09T11:29:03.181Z,100457.21
2024-05-09T11:31:47.999Z,100454.41
2024-05-09T11:34:20.046Z,100446.50
2024-05-09T11:36:50.412Z,100447.28
2024-05-09T11:39:21.998Z,100445.14
2024-05-09T11:41:52.106Z,100445.67
2024-05-09T11:44:23.983Z,100445.73
2024-05-09T11:46:54.607Z,100447.73
2024-05-09T11:49:27.013Z,100442.60
2024-05-09T11:51:57.381Z,100439.95
2024-05-09T11:54:29.076Z,100444.13
2024-05-09T11:56:59.175Z,100439.41
2024-05-09T11:59:31.036Z,100436.84
2024-05-09T12:02:01.310Z,100435.02
2024-05-09T12:04:33.322Z,100437.09
2024-05-09T12:07:04.091Z,100434.15
2024-05-09T12:09:35.764Z,100432.48
2024-05-09T12:12:06.244Z,100432.60
2024-05-09T12:14:37.783Z,100433.41
2024-05-09T12:17:07.941Z,100429.24
2024-05-09T12:19:39.698Z,100424.14
2024-05-09T12:22:10.070Z,100422.17
2024-05-09T12:24:42.032Z,100417.30
2024-05-09T12:27:12.175Z,100412.00
2024-05-09T12:29:43.833Z,100410.59
2024-05-09T12:32:13.977Z,100414.29
2024-05-09T12:34:45.660Z,100408.71
2024-05-09T12:37:15.806Z,100406.17
2024-05-09T12:39:47.620Z,100405.35
2024-05-09T12:42:26.569Z,100403.72
2024-05-09T12:45:01.231Z,100413.52
2024-05-09T12:47:31.627Z,100401.80
2024-05-09T12:50:04.934Z,100398.21
2024-05-09T12:52:35.276Z,100392.85
2024-05-09T12:55:07.280Z,100390.36
2024-05-09T12:57:37.756Z,100394.46
2024-05-09T13:00:20.212Z,100392.23
2024-05-09T13:02:56.061Z,100386.09
2024-05-09T13:05:26.717Z,100384.83
2024-05-09T13:07:58.315Z,100388.70
2024-05-09T13:10:32.406Z,100387.21
2024-05-09T13:13:05.430Z,100387.27
2024-05-09T13:15:37.075Z,100386.09
2024-05-09T13:18:08.815Z,100385.02
2024-05-09T13:20:39.160Z,100377.84
2024-05-09T13:23:10.601Z,100375.64
2024-05-09T13:25:40.812Z,100377.77
2024-05-09T13:28:12.281Z,100373.95
2024-05-09T13:30:42.801Z,100369.73
2024-05-09T13:33:14.845Z,100365.94
2024-05-09T13:35:49.208Z,100361.36
2024-05-09T13:38:22.543Z,100359.19
2024-05-09T13:40:53.405Z,100358.87
2024-05-09T13:43:25.680Z,100362.63
2024-05-09T13:45:57.449Z,100363.42
2024-05-09T13:48:29.113Z,100361.50
2024-05-09T13:50:59.623Z,100359.61
2024-05-09T13:53:30.870Z,100358.39
2024-05-09T13:56:01.195Z,100359.07
2024-05-09T13:58:32.463Z,100354.16
2024-05-09T14:01:02.967Z,100355.94
2024-05-09T14:03:34.736Z,100351.45
2024-05-09T14:06:07.085Z,100351.61
2024-05-09T14:08:39.471Z,100351.61
2024-05-09T14:11:10.054Z,100344.83
2024-05-09T14:13:41.349Z,100343.77
2024-05-09T14:16:11.804Z,100343.44
2024-05-09T14:18:43.165Z,100343.06
2024-05-09T14:21:13.445Z,100341.01
2024-05-09T14:23:44.665Z,100340.10
2024-05-09T14:26:14.914Z,100337.67
2024-05-09T14:28:46.472Z,100341.45
2024-05-09T14:31:17.035Z,100342.21
2024-05-09T14:33:48.820Z,100344.08
2024-05-09T14:36:19.277Z,100343.52
2024-05-09T14:38:50.723Z,100343.35
2024-05-09T14:41:20.854Z,100342.02
2024-05-09T14:43:52.408Z,100339.96
2024-05-09T14:46:22.945Z,100333.45
2024-05-09T14:48:55.435Z,100332.88
2024-05-09T14:51:25.942Z,100332.02
2024-05-09T14:53:57.910Z,100326.80
2024-05-09T14:56:28.322Z,100326.30
2024-05-09T14:59:00.178Z,100331.18
2024-05-09T15:01:31.164Z,100325.50
2024-05-09T15:04:03.166Z,100321.95
2024-05-09T15:06:33.727Z,100319.05
2024-05-09T15:09:06.660Z,100312.93
2024-05-09T15:11:36.638Z,100309.59
2024-05-09T15:14:09.103Z,100309.41
2024-05-09T15:16:39.514Z,100314.11
2024-05-09T15:19:11.593Z,100309.07
2024-05-09T15:21:41.831Z,100305.92
2024-05-09T15:24:13.558Z,100306.75
2024-05-09T15:26:44.008Z,100302.92
2024-05-09T15:29:15.549Z,100302.17
2024-05-09T15:31:45.972Z,100304.19
2024-05-09T15:34:17.549Z,100300.31
2024-05-09T15:36:51.335Z,100299.66
2024-05-09T15:39:25.338Z,100298.52
2024-05-09T15:41:56.682Z,100296.36
2024-05-09T15:44:28.244Z,100291.52
2024-05-09T15:46:58.355Z,100289.20
2024-05-09T15:49:30.677Z,100286.45
2024-05-09T15:52:01.083Z,100282.55
2024-05-09T15:54:32.733Z,100284.77
2024-05-09T15:57:02.818Z,100289.09
2024-05-09T15:59:35.058Z,100283.95
2024-05-09T16:02:06.086Z,100282.79
2024-05-09T16:04:38.177Z,100280.08
2024-05-09T16:07:08.393Z,100283.73
2024-05-09T16:09:40.435Z,100283.27
2024-05-09T16:12:10.498Z,100281.55
2024-05-09T16:14:42.259Z,100279.68
2024-05-09T16:17:12.323Z,100281.52
2024-05-09T16:19:43.934Z,100280.55
2024-05-09T16:22:14.127Z,100279.55
2024-05-09T16:24:46.285Z,100278.34
2024-05-09T16:27:16.428Z,100275.61
2024-05-09T16:29:49.058Z,100273.73
2024-05-09T16:32:19.283Z,100275.52
2024-05-09T16:34:51.275Z,100273.48
2024-05-09T16:37:21.590Z,100270.66
2024-05-09T16:39:53.292Z,100271.59
2024-05-09T16:42:23.502Z,100272.18
2024-05-09T16:44:54.948Z,100274.60
2024-05-09T16:47:25.168Z,100273.40
2024-05-09T16:49:57.231Z,100275.20
2024-05-09T16:52:27.354Z,100271.92
2024-05-09T16:54:58.949Z,100275.55
2024-05-09T16:57:29.243Z,100275.64
2024-05-09T17:00:00.685Z,100272.37
2024-05-09T17:02:31.417Z,100269.17
2024-05-09T17:05:03.299Z,100268.06
2024-05-09T17:07:33.605Z,100270.84
2024-05-09T17:10:10.217Z,100270.46
2024-05-09T17:12:46.865Z,100271.75
2024-05-09T17:15:17.984Z,100272.61
2024-05-09T17:17:49.889Z,100270.52
2024-05-09T17:20:29.349Z,100272.29
2024-05-09T17:23:13.791Z,100268.35
2024-05-09T17:25:45.946Z,100267.53
2024-05-09T17:28:16.364Z,100270.69
2024-05-09T17:30:48.802Z,100269.86
2024-05-09T17:33:19.435Z,100268.17
2024-05-09T17:35:51.844Z,100269.20
2024-05-09T17:38:25.319Z,100266.74
2024-05-09T17:40:57.107Z,100263.14
2024-05-09T17:43:28.464Z,100264.92
2024-05-09T17:46:00.486Z,100263.13
2024-05-09T17:48:30.792Z,100262.20
2024-05-09T17:51:02.614Z,100262.48
2024-05-09T17:53:32.772Z,100259.40
2024-05-09T17:56:04.836Z,100261.63
2024-05-09T17:58:34.896Z,100265.59
2024-05-09T18:01:06.743Z,100266.97
2024-05-09T18:03:37.470Z,100270.69
2024-05-09T18:06:09.350Z,100277.08
2024-05-09T18:08:39.328Z,100282.54
2024-05-09T18:11:11.409Z,100281.04
2024-05-09T18:13:41.513Z,100280.73
2024-05-09T18:16:13.811Z,100279.20
2024-05-09T18:18:44.051Z,100275.34
2024-05-09T18:21:16.386Z,100283.03
2024-05-09T18:23:46.810Z,100282.92
2024-05-09T18:26:18.360Z,100287.16
2024-05-09T18:28:48.801Z,100287.45
2024-05-09T18:31:20.391Z,100288.35
2024-05-09T18:33:50.955Z,100292.40
2024-05-09T18:36:22.524Z,100290.77
2024-05-09T18:38:52.846Z,100296.98
2024-05-09T18:41:24.496Z,100300.91
2024-05-09T18:43:55.259Z,100301.23
2024-05-09T18:46:26.864Z,100303.63
2024-05-09T18:48:58.009Z,100311.50
2024-05-09T18:51:29.784Z,100309.92
2024-05-09T18:53:59.911Z,100313.42
2024-05-09T18:56:31.561Z,100317.81
2024-05-09T18:59:01.896Z,100319.52
2024-05-09T19:01:33.773Z,100322.76
2024-05-09T19:04:04.810Z,100325.98
2024-05-09T19:06:36.705Z,100329.61
2024-05-09T19:09:07.388Z,100329.73
2024-05-09T19:11:40.092Z,100333.92
2024-05-09T19:14:10.515Z,100336.66
2024-05-09T19:16:42.042Z,100338.76
2024-05-09T19:19:13.886Z,100339.52
2024-05-09T19:21:45.584Z,100341.38
2024-05-09T19:24:17.258Z,100343.41
2024-05-09T19:26:49.499Z,100348.22
2024-05-09T19:29:19.804Z,100347.23
2024-05-09T19:31:51.631Z,100347.89
2024-05-09T19:34:21.907Z,100350.09
2024-05-09T19:36:53.278Z,100354.68
2024-05-09T19:39:24.074Z,100353.90
2024-05-09T19:41:55.412Z,100356.22
2024-05-09T19:44:25.840Z,100357.60
2024-05-09T19:46:57.391Z,100356.36
2024-05-09T19:49:27.805Z,100354.79
2024-05-09T19:51:59.324Z,100355.56
2024-05-09T19:54:29.713Z,100356.01
2024-05-09T19:57:01.044Z,100354.29
2024-05-09T19:59:31.892Z,100354.10
2024-05-09T20:02:03.431Z,100354.56
2024-05-09T20:04:34.236Z,100352.52
2024-05-09T20:07:05.893Z,100353.09
2024-05-09T20:09:36.191Z,100351.56
2024-05-09T20:12:09.366Z,100354.27
2024-05-09T20:14:39.561Z,100352.05
2024-05-09T20:17:10.907Z,100350.09
2024-05-09T20:19:45.106Z,100349.80
2024-05-09T20:22:16.810Z,100353.30
2024-05-09T20:24:47.330Z,100351.48
2024-05-09T20:27:18.771Z,100354.39
2024-05-09T20:29:48.978Z,100354.02
2024-05-09T20:32:20.326Z,100354.91
2024-05-09T20:34:51.761Z,100358.11
2024-05-09T20:37:23.425Z,100354.73
2024-05-09T20:39:54.183Z,100354.27
2024-05-09T20:42:25.715Z,100351.73
2024-05-09T20:44:56.035Z,100349.92
2024-05-09T20:47:27.619Z,100352.41
2024-05-09T20:49:58.157Z,100349.29
2024-05-09T20:52:29.777Z,100350.23
2024-05-09T20:55:00.272Z,100349.41
2024-05-09T20:57:32.270Z,100348.98
2024-05-09T21:00:03.399Z,100346.98
2024-05-09T21:02:38.413Z,100350.11
2024-05-09T21:05:09.830Z,100355.49
2024-05-09T21:07:41.449Z,100350.34
2024-05-09T21:10:15.900Z,100350.34
2024-05-09T21:12:54.350Z,100352.52
2024-05-09T21:15:24.504Z,100348.08
2024-05-09T21:17:56.429Z,100347.43
2024-05-09T21:23:01.612Z,100349.29
2024-05-09T21:25:32.413Z,100342.63
2024-05-09T21:28:04.644Z,100343.98
2024-05-09T21:30:41.453Z,100343.97
2024-05-09T21:33:15.640Z,100339.20
2024-05-09T21:35:46.069Z,100337.73
2024-05-09T21:38:17.590Z,100342.30
2024-05-09T21:40:47.975Z,100341.19
2024-05-09T21:43:19.801Z,100345.17
2024-05-09T21:45:50.414Z,100341.90
2024-05-09T21:48:21.882Z,100348.17
2024-05-09T21:50:52.584Z,100347.89
2024-05-09T21:53:24.441Z,100346.82
2024-05-09T21:55:54.674Z,100348.31
2024-05-09T21:58:26.793Z,100347.04
2024-05-09T22:00:57.426Z,100352.38
2024-05-09T22:03:29.210Z,100351.94
2024-05-09T22:05:59.656Z,100350.41
2024-05-09T22:08:31.304Z,100351.90
2024-05-09T22:11:01.501Z,100354.98
2024-05-09T22:13:33.179Z,100353.23
2024-05-09T22:16:06.231Z,100352.41
2024-05-09T22:18:37.951Z,100346.83
2024-05-09T22:21:08.456Z,100344.67
2024-05-09T22:23:39.907Z,100344.70
2024-05-09T22:26:10.338Z,100344.96
2024-05-09T22:28:41.580Z,100345.20
2024-05-09T22:31:12.123Z,100344.59
2024-05-09T22:33:46.383Z,100344.72
2024-05-09T22:36:19.612Z,100342.83
2024-05-09T22:38:49.733Z,100345.64
2024-05-09T22:41:21.389Z,100345.40
2024-05-09T22:43:51.429Z,100341.44
2024-05-09T22:46:23.206Z,100343.07
2024-05-09T22:48:53.485Z,100346.58
2024-05-09T22:51:25.142Z,100344.58
2024-05-09T22:53:55.373Z,100344.87
2024-05-09T22:56:27.596Z,100345.45
2024-05-09T22:58:57.852Z,100345.77
2024-05-09T23:01:29.598Z,100341.63
2024-05-09T23:04:00.135Z,100343.50
2024-05-09T23:06:32.165Z,100345.57
2024-05-09T23:09:02.331Z,100345.06
2024-05-09T23:11:33.953Z,100341.78
2024-05-09T23:14:04.721Z,100341.83
2024-05-09T23:16:36.374Z,100341.41
2024-05-09T23:19:06.966Z,100338.67
2024-05-09T23:21:40.473Z,100332.00
2024-05-09T23:24:10.717Z,100332.55
2024-05-09T23:26:43.436Z,100335.79
2024-05-09T23:29:13.777Z,100331.95
2024-05-09T23:31:45.073Z,100326.94
2024-05-09T23:34:15.425Z,100329.19
2024-05-09T23:36:47.166Z,100328.54
2024-05-09T23:39:18.564Z,100330.86
2024-05-09T23:41:49.948Z,100328.23
2024-05-09T23:44:20.276Z,100329.41
2024-05-09T23:46:51.986Z,100327.71
2024-05-09T23:49:22.645Z,100328.27
2024-05-09T23:51:54.483Z,100328.85
2024-05-09T23:54:24.762Z,100328.89
2024-05-09T23:56:56.616Z,100326.47
2024-05-09T23:59:26.848Z,100325.94
